Annapolis, Indiana
Current Conditions -  °F | °C
As of 10:55 PM on Wednesday 28 Jan 2015 (Local Time) from KPRG Reporting Station
Clear Clear  
Wind Chill: 25°   Ceiling: Unl
Heat Index: 36°   Visibility: 10mi
Dew Point: 25°   Wind: 20mph
Humidity: 66%   Direction: 150°SSE
Pressure: 29.97"   Gusts: 23mph
Location:  39.8468°N, 87.2662°W
Report Text: KPRG 290355Z AUTO 15017G20KT 10SM CLR 02/M04 A2997 RMK AO2 T00201037
Loading
Personal Weather Stations






























Interactive Weather Map New forecast layout! Learn more

10-Day Weather Forecast

Advertisements
Track Severe Weather on mobile